sensor_id;sensor_type;location;lat;lon;timestamp;P1;durP1;ratioP1;P2;durP2;ratioP2
76415;SDS011;65248;55.686;37.678;2022-12-29T00:01:55;1.30;;;0.70;;
76415;SDS011;65248;55.686;37.678;2022-12-29T00:04:20;1.48;;;0.55;;
76415;SDS011;65248;55.686;37.678;2022-12-29T00:06:47;1.60;;;0.85;;
76415;SDS011;65248;55.686;37.678;2022-12-29T00:09:13;2.17;;;0.90;;
76415;SDS011;65248;55.686;37.678;2022-12-29T00:11:41;0.55;;;0.55;;
76415;SDS011;65248;55.686;37.678;2022-12-29T00:14:10;1.50;;;0.50;;
76415;SDS011;65248;55.686;37.678;2022-12-29T00:16:55;1.15;;;0.90;;
76415;SDS011;65248;55.686;37.678;2022-12-29T00:19:21;0.55;;;0.55;;
76415;SDS011;65248;55.686;37.678;2022-12-29T00:22:08;0.88;;;0.85;;
76415;SDS011;65248;55.686;37.678;2022-12-29T00:24:56;0.80;;;0.70;;
76415;SDS011;65248;55.686;37.678;2022-12-29T00:27:34;0.50;;;0.50;;
76415;SDS011;65248;55.686;37.678;2022-12-29T00:30:22;2.90;;;0.63;;
76415;SDS011;65248;55.686;37.678;2022-12-29T00:33:11;0.60;;;0.60;;
76415;SDS011;65248;55.686;37.678;2022-12-29T00:36:02;0.60;;;0.60;;
76415;SDS011;65248;55.686;37.678;2022-12-29T00:38:32;0.50;;;0.50;;
76415;SDS011;65248;55.686;37.678;2022-12-29T00:41:21;2.15;;;0.80;;
76415;SDS011;65248;55.686;37.678;2022-12-29T00:44:05;0.70;;;0.60;;
76415;SDS011;65248;55.686;37.678;2022-12-29T00:46:31;0.52;;;0.40;;
76415;SDS011;65248;55.686;37.678;2022-12-29T00:48:57;0.77;;;0.65;;
76415;SDS011;65248;55.686;37.678;2022-12-29T00:51:42;0.95;;;0.63;;
76415;SDS011;65248;55.686;37.678;2022-12-29T00:54:07;0.52;;;0.52;;
76415;SDS011;65248;55.686;37.678;2022-12-29T00:56:33;1.35;;;0.93;;
76415;SDS011;65248;55.686;37.678;2022-12-29T00:59:02;0.95;;;0.60;;
76415;SDS011;65248;55.686;37.678;2022-12-29T01:01:29;1.93;;;0.83;;
76415;SDS011;65248;55.686;37.678;2022-12-29T01:03:55;0.65;;;0.60;;
76415;SDS011;65248;55.686;37.678;2022-12-29T01:06:20;1.00;;;0.60;;
76415;SDS011;65248;55.686;37.678;2022-12-29T01:08:46;2.38;;;1.13;;
76415;SDS011;65248;55.686;37.678;2022-12-29T01:11:12;5.60;;;1.00;;
76415;SDS011;65248;55.686;37.678;2022-12-29T01:13:38;0.95;;;0.63;;
76415;SDS011;65248;55.686;37.678;2022-12-29T01:16:06;2.78;;;1.20;;
76415;SDS011;65248;55.686;37.678;2022-12-29T01:18:32;0.60;;;0.60;;
76415;SDS011;65248;55.686;37.678;2022-12-29T01:20:58;1.70;;;1.17;;
76415;SDS011;65248;55.686;37.678;2022-12-29T01:23:25;0.73;;;0.73;;
76415;SDS011;65248;55.686;37.678;2022-12-29T01:25:50;0.70;;;0.70;;
76415;SDS011;65248;55.686;37.678;2022-12-29T01:28:16;5.45;;;0.98;;
76415;SDS011;65248;55.686;37.678;2022-12-29T01:30:41;2.13;;;1.15;;
76415;SDS011;65248;55.686;37.678;2022-12-29T01:33:07;1.25;;;0.93;;
76415;SDS011;65248;55.686;37.678;2022-12-29T01:35:32;0.82;;;0.60;;
76415;SDS011;65248;55.686;37.678;2022-12-29T01:37:58;2.25;;;1.08;;
76415;SDS011;65248;55.686;37.678;2022-12-29T01:40:23;0.47;;;0.47;;
76415;SDS011;65248;55.686;37.678;2022-12-29T01:42:49;1.15;;;0.60;;
76415;SDS011;65248;55.686;37.678;2022-12-29T01:45:15;4.72;;;0.88;;
76415;SDS011;65248;55.686;37.678;2022-12-29T01:47:58;5.57;;;1.15;;
76415;SDS011;65248;55.686;37.678;2022-12-29T01:50:30;1.63;;;0.65;;
76415;SDS011;65248;55.686;37.678;2022-12-29T01:55:59;0.70;;;0.70;;
76415;SDS011;65248;55.686;37.678;2022-12-29T02:00:57;1.38;;;0.60;;
76415;SDS011;65248;55.686;37.678;2022-12-29T02:03:23;1.17;;;0.70;;
76415;SDS011;65248;55.686;37.678;2022-12-29T02:05:52;1.27;;;0.98;;
76415;SDS011;65248;55.686;37.678;2022-12-29T02:08:33;0.50;;;0.50;;
76415;SDS011;65248;55.686;37.678;2022-12-29T02:10:59;1.17;;;0.70;;
76415;SDS011;65248;55.686;37.678;2022-12-29T02:13:25;1.70;;;0.70;;
76415;SDS011;65248;55.686;37.678;2022-12-29T02:32:02;0.55;;;0.55;;
76415;SDS011;65248;55.686;37.678;2022-12-29T02:37:29;4.82;;;0.93;;
76415;SDS011;65248;55.686;37.678;2022-12-29T02:46:18;0.50;;;0.50;;
76415;SDS011;65248;55.686;37.678;2022-12-29T02:48:54;5.07;;;1.00;;
76415;SDS011;65248;55.686;37.678;2022-12-29T02:54:20;1.52;;;1.15;;
76415;SDS011;65248;55.686;37.678;2022-12-29T02:59:45;0.90;;;0.90;;
76415;SDS011;65248;55.686;37.678;2022-12-29T03:02:39;1.02;;;0.80;;
76415;SDS011;65248;55.686;37.678;2022-12-29T03:11:12;0.73;;;0.70;;
76415;SDS011;65248;55.686;37.678;2022-12-29T03:16:48;0.70;;;0.70;;
76415;SDS011;65248;55.686;37.678;2022-12-29T03:21:52;0.60;;;0.60;;
76415;SDS011;65248;55.686;37.678;2022-12-29T03:24:40;5.30;;;1.13;;
76415;SDS011;65248;55.686;37.678;2022-12-29T03:27:10;2.25;;;0.70;;
76415;SDS011;65248;55.686;37.678;2022-12-29T03:29:41;1.88;;;0.80;;
76415;SDS011;65248;55.686;37.678;2022-12-29T03:32:13;4.35;;;1.40;;
76415;SDS011;65248;55.686;37.678;2022-12-29T03:34:41;0.82;;;0.82;;
76415;SDS011;65248;55.686;37.678;2022-12-29T03:37:11;1.83;;;1.38;;
76415;SDS011;65248;55.686;37.678;2022-12-29T03:39:40;1.50;;;0.75;;
76415;SDS011;65248;55.686;37.678;2022-12-29T03:42:09;1.98;;;1.30;;
76415;SDS011;65248;55.686;37.678;2022-12-29T03:44:41;1.17;;;0.52;;
76415;SDS011;65248;55.686;37.678;2022-12-29T03:47:09;5.43;;;0.82;;
76415;SDS011;65248;55.686;37.678;2022-12-29T03:49:36;1.88;;;0.85;;
76415;SDS011;65248;55.686;37.678;2022-12-29T03:52:02;2.25;;;0.90;;
76415;SDS011;65248;55.686;37.678;2022-12-29T03:54:29;0.80;;;0.80;;
76415;SDS011;65248;55.686;37.678;2022-12-29T03:56:55;2.90;;;0.70;;
76415;SDS011;65248;55.686;37.678;2022-12-29T03:59:20;5.93;;;0.90;;
76415;SDS011;65248;55.686;37.678;2022-12-29T04:01:46;1.40;;;0.73;;
76415;SDS011;65248;55.686;37.678;2022-12-29T04:04:11;0.70;;;0.70;;
76415;SDS011;65248;55.686;37.678;2022-12-29T04:06:37;3.58;;;1.08;;
76415;SDS011;65248;55.686;37.678;2022-12-29T04:09:03;0.95;;;0.73;;
76415;SDS011;65248;55.686;37.678;2022-12-29T04:11:29;0.60;;;0.60;;
76415;SDS011;65248;55.686;37.678;2022-12-29T04:13:54;2.17;;;1.08;;
76415;SDS011;65248;55.686;37.678;2022-12-29T04:16:20;4.53;;;1.10;;
76415;SDS011;65248;55.686;37.678;2022-12-29T04:18:45;2.28;;;1.30;;
76415;SDS011;65248;55.686;37.678;2022-12-29T04:21:11;5.38;;;0.85;;
76415;SDS011;65248;55.686;37.678;2022-12-29T04:23:37;1.02;;;0.82;;
76415;SDS011;65248;55.686;37.678;2022-12-29T04:26:04;1.05;;;0.80;;
76415;SDS011;65248;55.686;37.678;2022-12-29T04:28:32;0.77;;;0.63;;
76415;SDS011;65248;55.686;37.678;2022-12-29T04:30:58;2.58;;;1.30;;
76415;SDS011;65248;55.686;37.678;2022-12-29T04:33:24;2.28;;;0.93;;
76415;SDS011;65248;55.686;37.678;2022-12-29T04:35:50;3.00;;;0.88;;
76415;SDS011;65248;55.686;37.678;2022-12-29T04:38:18;0.65;;;0.65;;
76415;SDS011;65248;55.686;37.678;2022-12-29T04:40:43;0.90;;;0.90;;
76415;SDS011;65248;55.686;37.678;2022-12-29T04:43:09;0.82;;;0.82;;
76415;SDS011;65248;55.686;37.678;2022-12-29T04:45:35;1.02;;;0.82;;
76415;SDS011;65248;55.686;37.678;2022-12-29T04:48:00;3.20;;;1.50;;
76415;SDS011;65248;55.686;37.678;2022-12-29T04:50:26;1.15;;;1.05;;
76415;SDS011;65248;55.686;37.678;2022-12-29T04:52:52;0.75;;;0.73;;
76415;SDS011;65248;55.686;37.678;2022-12-29T04:55:17;4.22;;;1.95;;
76415;SDS011;65248;55.686;37.678;2022-12-29T04:57:43;2.28;;;2.08;;
76415;SDS011;65248;55.686;37.678;2022-12-29T05:00:08;0.90;;;0.90;;
76415;SDS011;65248;55.686;37.678;2022-12-29T05:02:35;5.00;;;1.73;;
76415;SDS011;65248;55.686;37.678;2022-12-29T05:05:01;1.08;;;0.98;;
76415;SDS011;65248;55.686;37.678;2022-12-29T05:07:26;1.15;;;1.00;;
76415;SDS011;65248;55.686;37.678;2022-12-29T05:09:52;2.70;;;0.68;;
76415;SDS011;65248;55.686;37.678;2022-12-29T05:12:17;0.95;;;0.82;;
76415;SDS011;65248;55.686;37.678;2022-12-29T05:14:43;1.20;;;0.90;;
76415;SDS011;65248;55.686;37.678;2022-12-29T05:17:08;2.45;;;0.80;;
76415;SDS011;65248;55.686;37.678;2022-12-29T05:19:34;1.30;;;1.20;;
76415;SDS011;65248;55.686;37.678;2022-12-29T05:21:59;4.88;;;1.75;;
76415;SDS011;65248;55.686;37.678;2022-12-29T05:24:25;6.15;;;1.17;;
76415;SDS011;65248;55.686;37.678;2022-12-29T05:26:50;4.05;;;1.42;;
76415;SDS011;65248;55.686;37.678;2022-12-29T05:29:16;0.70;;;0.70;;
76415;SDS011;65248;55.686;37.678;2022-12-29T05:31:41;1.35;;;1.17;;
76415;SDS011;65248;55.686;37.678;2022-12-29T05:34:08;3.20;;;0.93;;
76415;SDS011;65248;55.686;37.678;2022-12-29T05:36:36;3.72;;;1.35;;
76415;SDS011;65248;55.686;37.678;2022-12-29T05:39:01;1.17;;;1.02;;
76415;SDS011;65248;55.686;37.678;2022-12-29T05:41:27;17.88;;;1.95;;
76415;SDS011;65248;55.686;37.678;2022-12-29T05:43:52;2.45;;;1.50;;
76415;SDS011;65248;55.686;37.678;2022-12-29T05:46:17;2.30;;;1.67;;
76415;SDS011;65248;55.686;37.678;2022-12-29T05:48:43;2.05;;;1.27;;
76415;SDS011;65248;55.686;37.678;2022-12-29T05:51:08;2.85;;;1.83;;
76415;SDS011;65248;55.686;37.678;2022-12-29T05:53:34;2.60;;;0.85;;
76415;SDS011;65248;55.686;37.678;2022-12-29T05:55:59;6.63;;;1.55;;
76415;SDS011;65248;55.686;37.678;2022-12-29T05:58:25;2.08;;;1.40;;
76415;SDS011;65248;55.686;37.678;2022-12-29T06:00:50;1.05;;;1.02;;
76415;SDS011;65248;55.686;37.678;2022-12-29T06:03:16;2.88;;;1.73;;
76415;SDS011;65248;55.686;37.678;2022-12-29T06:05:41;1.77;;;1.67;;
76415;SDS011;65248;55.686;37.678;2022-12-29T06:08:09;4.45;;;1.10;;
76415;SDS011;65248;55.686;37.678;2022-12-29T06:10:34;3.72;;;1.52;;
76415;SDS011;65248;55.686;37.678;2022-12-29T06:13:00;2.50;;;2.28;;
76415;SDS011;65248;55.686;37.678;2022-12-29T06:15:25;1.88;;;1.10;;
76415;SDS011;65248;55.686;37.678;2022-12-29T06:17:51;2.65;;;1.70;;
76415;SDS011;65248;55.686;37.678;2022-12-29T06:20:16;2.10;;;1.95;;
76415;SDS011;65248;55.686;37.678;2022-12-29T06:22:42;1.42;;;1.33;;
76415;SDS011;65248;55.686;37.678;2022-12-29T06:25:08;1.42;;;1.33;;
76415;SDS011;65248;55.686;37.678;2022-12-29T06:27:33;1.52;;;1.30;;
76415;SDS011;65248;55.686;37.678;2022-12-29T06:29:59;2.30;;;1.35;;
76415;SDS011;65248;55.686;37.678;2022-12-29T06:32:24;2.22;;;1.23;;
76415;SDS011;65248;55.686;37.678;2022-12-29T06:34:50;3.75;;;1.70;;
76415;SDS011;65248;55.686;37.678;2022-12-29T06:37:15;2.20;;;1.58;;
76415;SDS011;65248;55.686;37.678;2022-12-29T06:39:41;2.70;;;1.90;;
76415;SDS011;65248;55.686;37.678;2022-12-29T06:42:08;2.10;;;1.65;;
76415;SDS011;65248;55.686;37.678;2022-12-29T06:44:34;1.60;;;1.35;;
76415;SDS011;65248;55.686;37.678;2022-12-29T06:47:00;2.90;;;1.20;;
76415;SDS011;65248;55.686;37.678;2022-12-29T06:49:25;4.30;;;1.63;;
76415;SDS011;65248;55.686;37.678;2022-12-29T06:51:51;3.10;;;2.05;;
76415;SDS011;65248;55.686;37.678;2022-12-29T06:54:16;2.55;;;1.60;;
76415;SDS011;65248;55.686;37.678;2022-12-29T06:56:42;2.80;;;1.63;;
76415;SDS011;65248;55.686;37.678;2022-12-29T06:59:08;1.60;;;1.15;;
76415;SDS011;65248;55.686;37.678;2022-12-29T07:01:34;3.28;;;1.23;;
76415;SDS011;65248;55.686;37.678;2022-12-29T07:04:01;4.63;;;1.50;;
76415;SDS011;65248;55.686;37.678;2022-12-29T07:06:29;2.13;;;1.52;;
76415;SDS011;65248;55.686;37.678;2022-12-29T07:08:55;2.28;;;1.58;;
76415;SDS011;65248;55.686;37.678;2022-12-29T07:11:22;2.53;;;1.60;;
76415;SDS011;65248;55.686;37.678;2022-12-29T07:13:48;2.30;;;1.63;;
76415;SDS011;65248;55.686;37.678;2022-12-29T07:16:13;1.75;;;1.25;;
76415;SDS011;65248;55.686;37.678;2022-12-29T07:18:39;3.95;;;1.75;;
76415;SDS011;65248;55.686;37.678;2022-12-29T07:21:04;3.53;;;2.00;;
76415;SDS011;65248;55.686;37.678;2022-12-29T07:23:30;2.40;;;1.67;;
76415;SDS011;65248;55.686;37.678;2022-12-29T07:26:03;2.10;;;1.65;;
76415;SDS011;65248;55.686;37.678;2022-12-29T07:28:30;2.25;;;1.63;;
76415;SDS011;65248;55.686;37.678;2022-12-29T07:30:57;6.35;;;2.65;;
76415;SDS011;65248;55.686;37.678;2022-12-29T07:33:23;3.72;;;2.22;;
76415;SDS011;65248;55.686;37.678;2022-12-29T07:35:49;3.83;;;1.75;;
76415;SDS011;65248;55.686;37.678;2022-12-29T07:38:14;1.38;;;1.25;;
76415;SDS011;65248;55.686;37.678;2022-12-29T07:40:41;1.98;;;1.52;;
76415;SDS011;65248;55.686;37.678;2022-12-29T07:43:06;1.35;;;1.25;;
76415;SDS011;65248;55.686;37.678;2022-12-29T07:45:32;2.10;;;1.50;;
76415;SDS011;65248;55.686;37.678;2022-12-29T07:47:57;2.72;;;1.60;;
76415;SDS011;65248;55.686;37.678;2022-12-29T07:50:23;4.45;;;2.20;;
76415;SDS011;65248;55.686;37.678;2022-12-29T07:52:48;8.88;;;2.38;;
76415;SDS011;65248;55.686;37.678;2022-12-29T07:55:14;2.85;;;2.22;;
76415;SDS011;65248;55.686;37.678;2022-12-29T07:57:41;3.15;;;1.98;;
76415;SDS011;65248;55.686;37.678;2022-12-29T08:00:06;5.95;;;2.05;;
76415;SDS011;65248;55.686;37.678;2022-12-29T08:02:32;10.02;;;2.63;;
76415;SDS011;65248;55.686;37.678;2022-12-29T08:04:58;3.30;;;2.28;;
76415;SDS011;65248;55.686;37.678;2022-12-29T08:07:23;8.45;;;3.00;;
76415;SDS011;65248;55.686;37.678;2022-12-29T08:09:49;7.03;;;3.92;;
76415;SDS011;65248;55.686;37.678;2022-12-29T08:12:14;4.88;;;2.95;;
76415;SDS011;65248;55.686;37.678;2022-12-29T08:14:40;11.15;;;2.80;;
76415;SDS011;65248;55.686;37.678;2022-12-29T08:17:05;5.15;;;2.75;;
76415;SDS011;65248;55.686;37.678;2022-12-29T08:19:31;4.43;;;2.67;;
76415;SDS011;65248;55.686;37.678;2022-12-29T08:21:56;5.03;;;2.50;;
76415;SDS011;65248;55.686;37.678;2022-12-29T08:24:22;4.28;;;2.47;;
76415;SDS011;65248;55.686;37.678;2022-12-29T08:26:47;5.45;;;2.25;;
76415;SDS011;65248;55.686;37.678;2022-12-29T08:29:16;4.07;;;2.55;;
76415;SDS011;65248;55.686;37.678;2022-12-29T08:31:41;8.10;;;3.45;;
76415;SDS011;65248;55.686;37.678;2022-12-29T08:34:07;6.18;;;3.05;;
76415;SDS011;65248;55.686;37.678;2022-12-29T08:36:32;9.65;;;3.70;;
76415;SDS011;65248;55.686;37.678;2022-12-29T08:39:04;4.85;;;3.13;;
76415;SDS011;65248;55.686;37.678;2022-12-29T08:41:30;4.70;;;3.03;;
76415;SDS011;65248;55.686;37.678;2022-12-29T08:43:55;8.18;;;2.90;;
76415;SDS011;65248;55.686;37.678;2022-12-29T08:46:21;9.63;;;3.97;;
76415;SDS011;65248;55.686;37.678;2022-12-29T08:48:46;8.27;;;3.47;;
76415;SDS011;65248;55.686;37.678;2022-12-29T08:51:12;4.53;;;3.05;;
76415;SDS011;65248;55.686;37.678;2022-12-29T08:53:38;6.97;;;4.13;;
76415;SDS011;65248;55.686;37.678;2022-12-29T08:56:06;5.97;;;3.20;;
76415;SDS011;65248;55.686;37.678;2022-12-29T08:58:33;5.57;;;3.35;;
76415;SDS011;65248;55.686;37.678;2022-12-29T09:00:59;8.38;;;4.30;;
76415;SDS011;65248;55.686;37.678;2022-12-29T09:03:25;7.45;;;3.45;;
76415;SDS011;65248;55.686;37.678;2022-12-29T09:05:51;7.50;;;4.30;;
76415;SDS011;65248;55.686;37.678;2022-12-29T09:08:18;8.02;;;4.13;;
76415;SDS011;65248;55.686;37.678;2022-12-29T09:10:44;7.88;;;4.05;;
76415;SDS011;65248;55.686;37.678;2022-12-29T09:13:10;9.18;;;3.85;;
76415;SDS011;65248;55.686;37.678;2022-12-29T09:15:37;6.68;;;3.95;;
76415;SDS011;65248;55.686;37.678;2022-12-29T09:18:06;8.55;;;3.08;;
76415;SDS011;65248;55.686;37.678;2022-12-29T09:20:32;6.80;;;3.45;;
76415;SDS011;65248;55.686;37.678;2022-12-29T09:22:58;7.38;;;2.72;;
76415;SDS011;65248;55.686;37.678;2022-12-29T09:25:24;8.70;;;3.22;;
76415;SDS011;65248;55.686;37.678;2022-12-29T09:27:56;10.73;;;3.13;;
76415;SDS011;65248;55.686;37.678;2022-12-29T09:30:22;10.70;;;3.33;;
76415;SDS011;65248;55.686;37.678;2022-12-29T09:32:49;5.20;;;2.83;;
76415;SDS011;65248;55.686;37.678;2022-12-29T09:35:18;5.57;;;3.65;;
76415;SDS011;65248;55.686;37.678;2022-12-29T09:37:43;8.45;;;3.83;;
76415;SDS011;65248;55.686;37.678;2022-12-29T09:40:23;11.27;;;3.65;;
76415;SDS011;65248;55.686;37.678;2022-12-29T09:45:44;6.57;;;2.97;;
76415;SDS011;65248;55.686;37.678;2022-12-29T09:48:20;8.00;;;3.38;;
76415;SDS011;65248;55.686;37.678;2022-12-29T09:50:53;7.55;;;2.75;;
76415;SDS011;65248;55.686;37.678;2022-12-29T09:56:26;3.92;;;2.75;;
76415;SDS011;65248;55.686;37.678;2022-12-29T09:59:10;5.25;;;2.70;;
76415;SDS011;65248;55.686;37.678;2022-12-29T10:04:16;3.75;;;2.50;;
76415;SDS011;65248;55.686;37.678;2022-12-29T10:07:02;5.65;;;2.95;;
76415;SDS011;65248;55.686;37.678;2022-12-29T10:09:45;5.18;;;2.70;;
76415;SDS011;65248;55.686;37.678;2022-12-29T10:15:31;5.85;;;3.28;;
76415;SDS011;65248;55.686;37.678;2022-12-29T10:21:17;4.18;;;2.70;;
76415;SDS011;65248;55.686;37.678;2022-12-29T10:24:12;3.88;;;2.38;;
76415;SDS011;65248;55.686;37.678;2022-12-29T10:26:40;15.43;;;2.92;;
76415;SDS011;65248;55.686;37.678;2022-12-29T10:29:14;9.82;;;3.38;;
76415;SDS011;65248;55.686;37.678;2022-12-29T10:31:45;11.10;;;2.13;;
76415;SDS011;65248;55.686;37.678;2022-12-29T10:34:21;2.95;;;2.28;;
76415;SDS011;65248;55.686;37.678;2022-12-29T10:36:53;10.52;;;2.88;;
76415;SDS011;65248;55.686;37.678;2022-12-29T10:39:26;7.40;;;2.50;;
76415;SDS011;65248;55.686;37.678;2022-12-29T10:42:14;6.20;;;2.75;;
76415;SDS011;65248;55.686;37.678;2022-12-29T10:44:46;2.80;;;2.05;;
76415;SDS011;65248;55.686;37.678;2022-12-29T10:47:16;16.35;;;3.47;;
76415;SDS011;65248;55.686;37.678;2022-12-29T10:49:45;4.78;;;2.92;;
76415;SDS011;65248;55.686;37.678;2022-12-29T10:52:15;6.60;;;3.42;;
76415;SDS011;65248;55.686;37.678;2022-12-29T10:57:56;6.82;;;3.20;;
76415;SDS011;65248;55.686;37.678;2022-12-29T11:00:30;5.15;;;3.08;;
76415;SDS011;65248;55.686;37.678;2022-12-29T11:05:57;8.23;;;3.63;;
76415;SDS011;65248;55.686;37.678;2022-12-29T11:08:33;7.47;;;2.70;;
76415;SDS011;65248;55.686;37.678;2022-12-29T11:11:05;9.57;;;4.40;;
76415;SDS011;65248;55.686;37.678;2022-12-29T11:13:46;4.53;;;2.85;;
76415;SDS011;65248;55.686;37.678;2022-12-29T11:16:14;11.63;;;3.95;;
76415;SDS011;65248;55.686;37.678;2022-12-29T11:18:55;9.15;;;4.97;;
76415;SDS011;65248;55.686;37.678;2022-12-29T11:27:08;8.57;;;3.53;;
76415;SDS011;65248;55.686;37.678;2022-12-29T11:29:43;7.00;;;3.10;;
76415;SDS011;65248;55.686;37.678;2022-12-29T11:32:21;5.32;;;3.80;;
76415;SDS011;65248;55.686;37.678;2022-12-29T11:34:46;6.50;;;3.72;;
76415;SDS011;65248;55.686;37.678;2022-12-29T11:37:29;7.88;;;4.00;;
76415;SDS011;65248;55.686;37.678;2022-12-29T11:40:18;15.60;;;4.45;;
76415;SDS011;65248;55.686;37.678;2022-12-29T11:42:53;8.48;;;3.42;;
76415;SDS011;65248;55.686;37.678;2022-12-29T11:45:22;5.70;;;3.80;;
76415;SDS011;65248;55.686;37.678;2022-12-29T11:47:56;9.70;;;3.75;;
76415;SDS011;65248;55.686;37.678;2022-12-29T11:50:29;10.15;;;4.00;;
76415;SDS011;65248;55.686;37.678;2022-12-29T11:53:07;12.68;;;4.53;;
76415;SDS011;65248;55.686;37.678;2022-12-29T11:55:50;8.63;;;4.22;;
76415;SDS011;65248;55.686;37.678;2022-12-29T11:58:21;13.10;;;5.95;;
76415;SDS011;65248;55.686;37.678;2022-12-29T12:00:54;7.80;;;3.97;;
76415;SDS011;65248;55.686;37.678;2022-12-29T12:03:22;5.85;;;4.38;;
76415;SDS011;65248;55.686;37.678;2022-12-29T12:05:56;14.23;;;4.93;;
76415;SDS011;65248;55.686;37.678;2022-12-29T12:08:34;9.10;;;3.85;;
76415;SDS011;65248;55.686;37.678;2022-12-29T12:11:11;6.18;;;2.92;;
76415;SDS011;65248;55.686;37.678;2022-12-29T12:14:01;5.03;;;2.70;;
76415;SDS011;65248;55.686;37.678;2022-12-29T12:16:46;8.95;;;3.63;;
76415;SDS011;65248;55.686;37.678;2022-12-29T12:19:32;4.95;;;2.83;;
76415;SDS011;65248;55.686;37.678;2022-12-29T12:22:04;7.13;;;3.75;;
76415;SDS011;65248;55.686;37.678;2022-12-29T12:24:42;7.88;;;3.65;;
76415;SDS011;65248;55.686;37.678;2022-12-29T12:27:21;7.95;;;3.88;;
76415;SDS011;65248;55.686;37.678;2022-12-29T12:29:52;4.43;;;3.08;;
76415;SDS011;65248;55.686;37.678;2022-12-29T12:32:41;6.40;;;4.40;;
76415;SDS011;65248;55.686;37.678;2022-12-29T12:35:14;6.15;;;4.05;;
76415;SDS011;65248;55.686;37.678;2022-12-29T12:38:01;8.02;;;3.10;;
76415;SDS011;65248;55.686;37.678;2022-12-29T12:43:34;8.95;;;4.05;;
76415;SDS011;65248;55.686;37.678;2022-12-29T13:00:28;3.72;;;2.47;;
76415;SDS011;65248;55.686;37.678;2022-12-29T13:08:50;4.45;;;3.13;;
76415;SDS011;65248;55.686;37.678;2022-12-29T13:11:25;15.07;;;3.45;;
76415;SDS011;65248;55.686;37.678;2022-12-29T13:14:07;5.80;;;3.88;;
76415;SDS011;65248;55.686;37.678;2022-12-29T13:27:35;4.93;;;3.15;;
76415;SDS011;65248;55.686;37.678;2022-12-29T13:30:09;5.13;;;3.17;;
76415;SDS011;65248;55.686;37.678;2022-12-29T13:37:41;7.70;;;3.20;;
76415;SDS011;65248;55.686;37.678;2022-12-29T13:40:32;14.70;;;3.30;;
76415;SDS011;65248;55.686;37.678;2022-12-29T13:43:04;8.13;;;3.67;;
76415;SDS011;65248;55.686;37.678;2022-12-29T13:45:31;12.82;;;3.65;;
76415;SDS011;65248;55.686;37.678;2022-12-29T13:50:29;7.72;;;4.07;;
76415;SDS011;65248;55.686;37.678;2022-12-29T13:55:58;4.60;;;2.72;;
76415;SDS011;65248;55.686;37.678;2022-12-29T14:01:12;8.30;;;3.78;;
76415;SDS011;65248;55.686;37.678;2022-12-29T14:03:45;7.25;;;3.83;;
76415;SDS011;65248;55.686;37.678;2022-12-29T14:06:58;4.97;;;3.10;;
76415;SDS011;65248;55.686;37.678;2022-12-29T14:12:10;9.63;;;3.35;;
76415;SDS011;65248;55.686;37.678;2022-12-29T14:15:06;5.82;;;3.40;;
76415;SDS011;65248;55.686;37.678;2022-12-29T14:17:45;7.70;;;3.80;;
76415;SDS011;65248;55.686;37.678;2022-12-29T14:20:28;8.18;;;4.10;;
76415;SDS011;65248;55.686;37.678;2022-12-29T14:28:15;5.22;;;3.55;;
76415;SDS011;65248;55.686;37.678;2022-12-29T14:30:50;8.77;;;4.57;;
76415;SDS011;65248;55.686;37.678;2022-12-29T14:33:39;10.02;;;4.85;;
76415;SDS011;65248;55.686;37.678;2022-12-29T14:36:25;10.40;;;4.82;;
76415;SDS011;65248;55.686;37.678;2022-12-29T14:38:59;9.90;;;3.95;;
76415;SDS011;65248;55.686;37.678;2022-12-29T14:41:40;7.70;;;3.90;;
76415;SDS011;65248;55.686;37.678;2022-12-29T14:49:18;6.55;;;3.65;;
76415;SDS011;65248;55.686;37.678;2022-12-29T14:51:50;10.10;;;4.88;;
76415;SDS011;65248;55.686;37.678;2022-12-29T14:57:06;19.88;;;4.80;;
76415;SDS011;65248;55.686;37.678;2022-12-29T14:59:36;20.25;;;5.47;;
76415;SDS011;65248;55.686;37.678;2022-12-29T15:02:03;17.45;;;6.10;;
76415;SDS011;65248;55.686;37.678;2022-12-29T15:04:37;12.15;;;5.80;;
76415;SDS011;65248;55.686;37.678;2022-12-29T15:07:07;14.48;;;4.97;;
76415;SDS011;65248;55.686;37.678;2022-12-29T15:09:44;13.40;;;4.57;;
76415;SDS011;65248;55.686;37.678;2022-12-29T15:14:52;13.65;;;6.00;;
76415;SDS011;65248;55.686;37.678;2022-12-29T15:17:34;10.82;;;4.65;;
76415;SDS011;65248;55.686;37.678;2022-12-29T15:20:49;9.52;;;4.57;;
76415;SDS011;65248;55.686;37.678;2022-12-29T15:23:02;14.70;;;5.75;;
76415;SDS011;65248;55.686;37.678;2022-12-29T15:25:36;14.50;;;4.90;;
76415;SDS011;65248;55.686;37.678;2022-12-29T15:28:10;13.05;;;5.20;;
76415;SDS011;65248;55.686;37.678;2022-12-29T15:33:26;15.73;;;4.93;;
76415;SDS011;65248;55.686;37.678;2022-12-29T15:35:53;16.52;;;5.47;;
76415;SDS011;65248;55.686;37.678;2022-12-29T15:38:21;12.13;;;5.45;;
76415;SDS011;65248;55.686;37.678;2022-12-29T15:46:41;15.27;;;5.80;;
76415;SDS011;65248;55.686;37.678;2022-12-29T15:49:07;18.00;;;7.07;;
76415;SDS011;65248;55.686;37.678;2022-12-29T15:51:38;17.25;;;5.60;;
76415;SDS011;65248;55.686;37.678;2022-12-29T15:54:05;22.23;;;6.55;;
76415;SDS011;65248;55.686;37.678;2022-12-29T15:56:40;15.40;;;7.20;;
76415;SDS011;65248;55.686;37.678;2022-12-29T15:59:20;19.67;;;6.20;;
76415;SDS011;65248;55.686;37.678;2022-12-29T16:04:25;9.95;;;5.80;;
76415;SDS011;65248;55.686;37.678;2022-12-29T16:07:03;15.48;;;5.70;;
76415;SDS011;65248;55.686;37.678;2022-12-29T16:12:04;12.02;;;6.75;;
76415;SDS011;65248;55.686;37.678;2022-12-29T16:14:42;27.30;;;7.40;;
76415;SDS011;65248;55.686;37.678;2022-12-29T16:17:19;17.13;;;5.75;;
76415;SDS011;65248;55.686;37.678;2022-12-29T16:20:02;23.08;;;7.63;;
76415;SDS011;65248;55.686;37.678;2022-12-29T16:22:36;17.00;;;5.53;;
76415;SDS011;65248;55.686;37.678;2022-12-29T16:27:41;27.63;;;8.20;;
76415;SDS011;65248;55.686;37.678;2022-12-29T16:32:45;15.93;;;7.82;;
76415;SDS011;65248;55.686;37.678;2022-12-29T16:35:22;17.75;;;6.05;;
76415;SDS011;65248;55.686;37.678;2022-12-29T16:48:53;17.60;;;6.53;;
76415;SDS011;65248;55.686;37.678;2022-12-29T16:51:28;12.50;;;5.32;;
76415;SDS011;65248;55.686;37.678;2022-12-29T16:53:55;12.45;;;5.78;;
76415;SDS011;65248;55.686;37.678;2022-12-29T16:56:23;17.35;;;5.63;;
76415;SDS011;65248;55.686;37.678;2022-12-29T16:58:59;11.82;;;5.50;;
76415;SDS011;65248;55.686;37.678;2022-12-29T17:01:37;13.65;;;5.13;;
76415;SDS011;65248;55.686;37.678;2022-12-29T17:04:10;17.52;;;6.93;;
76415;SDS011;65248;55.686;37.678;2022-12-29T17:06:38;12.75;;;5.95;;
76415;SDS011;65248;55.686;37.678;2022-12-29T17:09:23;21.55;;;6.43;;
76415;SDS011;65248;55.686;37.678;2022-12-29T17:11:51;11.70;;;5.60;;
76415;SDS011;65248;55.686;37.678;2022-12-29T17:14:25;14.63;;;6.38;;
76415;SDS011;65248;55.686;37.678;2022-12-29T17:16:56;15.88;;;6.30;;
76415;SDS011;65248;55.686;37.678;2022-12-29T17:19:29;23.77;;;6.05;;
76415;SDS011;65248;55.686;37.678;2022-12-29T17:21:57;14.23;;;5.80;;
76415;SDS011;65248;55.686;37.678;2022-12-29T17:24:22;14.15;;;5.65;;
76415;SDS011;65248;55.686;37.678;2022-12-29T17:26:49;11.77;;;5.80;;
76415;SDS011;65248;55.686;37.678;2022-12-29T17:29:39;15.65;;;6.03;;
76415;SDS011;65248;55.686;37.678;2022-12-29T17:32:06;7.40;;;4.90;;
76415;SDS011;65248;55.686;37.678;2022-12-29T17:34:36;15.00;;;6.95;;
76415;SDS011;65248;55.686;37.678;2022-12-29T17:37:02;16.77;;;5.90;;
76415;SDS011;65248;55.686;37.678;2022-12-29T17:39:28;13.38;;;6.85;;
76415;SDS011;65248;55.686;37.678;2022-12-29T17:41:53;15.05;;;5.78;;